Time;durP1;ratioP1;P1;durP2;ratioP2;P2;SDS_P1;SDS_P2;PMS_P1;PMS_P2;Temp;Humidity;BMP_temperature;BMP_pressure;BME280_temperature;BME280_humidity;BME280_pressure;Samples;Min_cycle;Max_cycle;Signal;HPM_P1;HPM_P2
2022/04/16 00:02:08;;;;;;;14.73;3.72;;;;;;;;;;5019307;28;20041;-62
2022/04/16 00:04:34;;;;;;;12.80;3.95;;;;;;;;;;5015665;28;20127;-62
2022/04/16 00:07:00;;;;;;;9.70;4.20;;;;;;;;;;5021163;28;20596;-62
2022/04/16 00:09:26;;;;;;;17.33;3.97;;;;;;;;;;5026327;28;20026;-62
2022/04/16 00:11:51;;;;;;;7.53;3.67;;;;;;;;;;5026398;28;20548;-62
2022/04/16 00:14:19;;;;;;;10.57;4.47;;;;;;;;;;5016394;28;20032;-62
2022/04/16 00:16:45;;;;;;;5.88;3.75;;;;;;;;;;5024231;28;20478;-62
2022/04/16 00:19:11;;;;;;;6.20;3.92;;;;;;;;;;5021003;28;20045;-62
2022/04/16 00:21:38;;;;;;;11.05;4.15;;;;;;;;;;5030290;28;20021;-61
2022/04/16 00:24:05;;;;;;;5.25;3.63;;;;;;;;;;5023505;28;20079;-61
2022/04/16 00:26:30;;;;;;;15.38;4.00;;;;;;;;;;5021617;28;20022;-62
2022/04/16 00:28:59;;;;;;;8.50;4.10;;;;;;;;;;5026509;28;20478;-62
2022/04/16 00:31:26;;;;;;;9.10;3.78;;;;;;;;;;5017422;28;20112;-62
2022/04/16 00:33:52;;;;;;;7.35;3.67;;;;;;;;;;5020638;28;20030;-62
2022/04/16 00:36:18;;;;;;;10.13;3.80;;;;;;;;;;5024668;28;20474;-62
2022/04/16 00:38:43;;;;;;;8.43;3.45;;;;;;;;;;5021637;28;20053;-62
2022/04/16 00:41:11;;;;;;;8.60;4.10;;;;;;;;;;5022544;28;20025;-62
2022/04/16 00:43:37;;;;;;;15.10;4.18;;;;;;;;;;5022069;28;20390;-62
2022/04/16 00:46:03;;;;;;;9.25;4.07;;;;;;;;;;5028085;28;20117;-62
2022/04/16 00:48:29;;;;;;;9.35;3.70;;;;;;;;;;5018789;28;20447;-62
2022/04/16 00:50:56;;;;;;;5.65;3.75;;;;;;;;;;5018393;28;20049;-62
2022/04/16 00:53:27;;;;;;;14.02;4.65;;;;;;;;;;5021151;28;20055;-61
2022/04/16 00:55:53;;;;;;;13.07;4.67;;;;;;;;;;5018070;28;20026;-62
2022/04/16 00:58:19;;;;;;;12.88;4.53;;;;;;;;;;5020869;28;20029;-62
2022/04/16 01:00:45;;;;;;;9.40;3.95;;;;;;;;;;5018062;28;20042;-62
2022/04/16 01:03:11;;;;;;;13.15;4.50;;;;;;;;;;5022561;28;20040;-62
2022/04/16 01:05:37;;;;;;;7.65;4.28;;;;;;;;;;5023585;28;20041;-62
2022/04/16 01:08:04;;;;;;;10.60;5.00;;;;;;;;;;5023533;28;20039;-62
2022/04/16 01:10:32;;;;;;;18.73;5.63;;;;;;;;;;5018515;28;20112;-62
2022/04/16 01:13:00;;;;;;;14.10;4.93;;;;;;;;;;5027015;28;20569;-62
2022/04/16 01:15:29;;;;;;;9.57;4.35;;;;;;;;;;5025977;28;20040;-62
2022/04/16 01:17:56;;;;;;;12.95;4.47;;;;;;;;;;5020910;28;20033;-62
2022/04/16 01:20:22;;;;;;;7.32;4.38;;;;;;;;;;5018542;28;20100;-62
2022/04/16 01:22:50;;;;;;;13.93;4.68;;;;;;;;;;5016768;28;20035;-62
2022/04/16 01:25:16;;;;;;;13.27;4.72;;;;;;;;;;5021604;28;20041;-61
2022/04/16 01:27:48;;;;;;;12.75;4.25;;;;;;;;;;5024662;28;20029;-62
2022/04/16 01:30:17;;;;;;;9.27;4.05;;;;;;;;;;5020213;28;20494;-62
2022/04/16 01:32:43;;;;;;;8.05;4.57;;;;;;;;;;5021339;28;20120;-62
2022/04/16 01:35:10;;;;;;;11.00;4.78;;;;;;;;;;5018510;28;20108;-62
2022/04/16 01:37:37;;;;;;;11.35;4.75;;;;;;;;;;5024563;28;20113;-62
2022/04/16 01:40:05;;;;;;;9.35;4.22;;;;;;;;;;5023979;28;20045;-62
2022/04/16 01:42:32;;;;;;;8.73;3.75;;;;;;;;;;5021373;28;20528;-62
2022/04/16 01:45:19;;;;;;;6.75;3.95;;;;;;;;;;5024113;28;20503;-62
2022/04/16 01:47:44;;;;;;;13.63;4.45;;;;;;;;;;5018340;28;20038;-62
2022/04/16 01:50:11;;;;;;;8.05;4.00;;;;;;;;;;5020865;28;20036;-62
2022/04/16 01:52:38;;;;;;;13.25;3.80;;;;;;;;;;5017462;28;20386;-61
2022/04/16 01:55:05;;;;;;;4.68;3.90;;;;;;;;;;5022683;28;20084;-62
2022/04/16 01:57:31;;;;;;;4.43;3.25;;;;;;;;;;5017627;28;20057;-62
2022/04/16 01:59:57;;;;;;;6.15;3.22;;;;;;;;;;5018882;28;20053;-62
2022/04/16 02:02:23;;;;;;;7.80;3.47;;;;;;;;;;5037030;28;20041;-62
2022/04/16 02:04:48;;;;;;;12.45;2.92;;;;;;;;;;5025684;28;20036;-62
2022/04/16 02:07:14;;;;;;;3.95;2.85;;;;;;;;;;5022311;28;20030;-62
2022/04/16 02:09:40;;;;;;;4.22;2.60;;;;;;;;;;5023424;28;20359;-62
2022/04/16 02:12:08;;;;;;;5.60;3.30;;;;;;;;;;5024215;28;20044;-62
2022/04/16 02:14:34;;;;;;;7.57;2.78;;;;;;;;;;5017687;28;20036;-62
2022/04/16 02:17:00;;;;;;;7.28;2.95;;;;;;;;;;5020043;28;20030;-62
2022/04/16 02:19:27;;;;;;;6.07;3.10;;;;;;;;;;5016717;28;20038;-62
2022/04/16 02:21:53;;;;;;;14.40;2.80;;;;;;;;;;5023675;28;20033;-62
2022/04/16 02:24:19;;;;;;;3.95;2.42;;;;;;;;;;5019991;28;20382;-62
2022/04/16 02:26:45;;;;;;;6.43;2.75;;;;;;;;;;5012756;28;20022;-62
2022/04/16 02:29:11;;;;;;;4.22;2.30;;;;;;;;;;5014644;28;20546;-62
2022/04/16 02:31:37;;;;;;;4.38;2.72;;;;;;;;;;5023681;28;20408;-62
2022/04/16 02:34:05;;;;;;;3.40;2.63;;;;;;;;;;5020262;28;20033;-62
2022/04/16 02:36:34;;;;;;;5.32;2.50;;;;;;;;;;5019741;28;20383;-62
2022/04/16 02:39:00;;;;;;;6.03;2.30;;;;;;;;;;5016414;28;20045;-62
2022/04/16 02:41:26;;;;;;;5.45;3.00;;;;;;;;;;5020262;28;20030;-62
2022/04/16 02:43:55;;;;;;;5.78;2.88;;;;;;;;;;5014502;28;20520;-62
2022/04/16 02:49:10;;;;;;;4.93;2.72;;;;;;;;;;5024445;28;20508;-62
2022/04/16 02:51:35;;;;;;;3.85;2.35;;;;;;;;;;5026961;28;20033;-62
2022/04/16 02:54:01;;;;;;;4.93;2.63;;;;;;;;;;5021042;28;20036;-62
2022/04/16 02:56:27;;;;;;;5.25;3.17;;;;;;;;;;5019423;28;20505;-62
2022/04/16 02:58:53;;;;;;;4.55;2.33;;;;;;;;;;5021548;28;20088;-62
2022/04/16 03:01:19;;;;;;;9.70;2.72;;;;;;;;;;5018074;28;20494;-62
2022/04/16 03:03:44;;;;;;;5.72;2.67;;;;;;;;;;5022743;28;20059;-62
2022/04/16 03:06:10;;;;;;;5.97;2.72;;;;;;;;;;5018886;28;20033;-62
2022/04/16 03:08:36;;;;;;;11.77;3.63;;;;;;;;;;5024608;28;20075;-61
2022/04/16 03:11:05;;;;;;;3.05;2.50;;;;;;;;;;5022763;28;20025;-62
2022/04/16 03:13:34;;;;;;;15.27;2.75;;;;;;;;;;5023024;28;20072;-62
2022/04/16 03:18:45;;;;;;;5.93;2.50;;;;;;;;;;5024677;28;20044;-62
2022/04/16 03:21:11;;;;;;;6.28;2.80;;;;;;;;;;5028274;28;20076;-62
2022/04/16 03:23:38;;;;;;;2.80;2.45;;;;;;;;;;5027279;28;20017;-62
2022/04/16 03:26:04;;;;;;;5.20;2.88;;;;;;;;;;5025382;28;20033;-62
2022/04/16 03:28:31;;;;;;;9.57;2.78;;;;;;;;;;5015237;28;20024;-62
2022/04/16 03:30:58;;;;;;;5.88;2.40;;;;;;;;;;5028208;28;20053;-62
2022/04/16 03:33:24;;;;;;;6.57;2.28;;;;;;;;;;5022526;28;20030;-62
2022/04/16 03:35:51;;;;;;;8.88;2.58;;;;;;;;;;5020071;28;20033;-62
2022/04/16 03:38:18;;;;;;;5.90;2.50;;;;;;;;;;5019105;28;20029;-62
2022/04/16 03:40:44;;;;;;;4.15;2.30;;;;;;;;;;5017833;28;20091;-62
2022/04/16 03:43:10;;;;;;;5.15;2.67;;;;;;;;;;5020418;28;20038;-62
2022/04/16 03:45:37;;;;;;;3.75;2.83;;;;;;;;;;5016036;28;20092;-62
2022/04/16 03:48:05;;;;;;;7.55;2.58;;;;;;;;;;5019803;28;20087;-62
2022/04/16 03:50:32;;;;;;;3.72;2.60;;;;;;;;;;5018643;28;20040;-62
2022/04/16 03:52:58;;;;;;;3.28;2.45;;;;;;;;;;5025376;28;20097;-62
2022/04/16 04:00:58;;;;;;;2.60;2.40;;;;;;;;;;5020863;28;20121;-62
2022/04/16 04:03:24;;;;;;;4.40;2.85;;;;;;;;;;5023939;28;20120;-62
2022/04/16 04:05:53;;;;;;;4.43;2.42;;;;;;;;;;5023511;28;20083;-62
2022/04/16 04:08:20;;;;;;;2.90;2.55;;;;;;;;;;5020836;28;20057;-62
2022/04/16 04:10:47;;;;;;;5.43;2.83;;;;;;;;;;5023023;28;20037;-61
2022/04/16 04:13:14;;;;;;;5.45;2.42;;;;;;;;;;5026203;28;20401;-62
2022/04/16 04:15:40;;;;;;;6.15;2.55;;;;;;;;;;5023970;28;20036;-62
2022/04/16 04:18:06;;;;;;;3.45;2.58;;;;;;;;;;5027253;28;20025;-62
2022/04/16 04:20:32;;;;;;;5.30;2.70;;;;;;;;;;5017468;28;20443;-62
2022/04/16 04:22:58;;;;;;;3.30;2.70;;;;;;;;;;5021488;28;20487;-62
2022/04/16 04:25:24;;;;;;;13.18;2.80;;;;;;;;;;5015715;28;20073;-61
2022/04/16 04:27:50;;;;;;;3.70;2.72;;;;;;;;;;5029275;28;20112;-62
2022/04/16 04:30:16;;;;;;;4.90;2.80;;;;;;;;;;5016496;28;20120;-62
2022/04/16 04:32:41;;;;;;;3.42;2.38;;;;;;;;;;5021571;28;20033;-61
2022/04/16 04:35:08;;;;;;;3.17;2.85;;;;;;;;;;5019843;28;20121;-62
2022/04/16 04:37:35;;;;;;;4.53;2.50;;;;;;;;;;5018599;28;20029;-62
2022/04/16 04:40:01;;;;;;;7.50;2.90;;;;;;;;;;5018561;28;20049;-61
2022/04/16 04:42:30;;;;;;;3.20;2.38;;;;;;;;;;5019251;28;20036;-62
2022/04/16 04:44:56;;;;;;;5.32;2.70;;;;;;;;;;5017805;28;20096;-62
2022/04/16 04:47:22;;;;;;;5.47;2.80;;;;;;;;;;5020992;28;20029;-62
2022/04/16 04:49:48;;;;;;;3.30;2.88;;;;;;;;;;5019546;28;20136;-62
2022/04/16 04:52:29;;;;;;;4.30;2.78;;;;;;;;;;5020748;28;20025;-62
2022/04/16 04:55:00;;;;;;;6.38;2.75;;;;;;;;;;5025150;28;20029;-62
2022/04/16 04:57:26;;;;;;;11.73;3.05;;;;;;;;;;5023911;28;20416;-62
2022/04/16 04:59:52;;;;;;;3.33;3.03;;;;;;;;;;5024315;28;20105;-62
2022/04/16 05:02:18;;;;;;;5.97;3.00;;;;;;;;;;5024082;28;20107;-62
2022/04/16 05:04:44;;;;;;;5.13;2.97;;;;;;;;;;5021032;28;20117;-62
2022/04/16 05:07:09;;;;;;;7.72;3.08;;;;;;;;;;5015097;28;20088;-62
2022/04/16 05:09:36;;;;;;;5.00;3.03;;;;;;;;;;5028721;28;20040;-62
2022/04/16 05:12:03;;;;;;;5.30;3.08;;;;;;;;;;5021281;28;20030;-61
2022/04/16 05:14:29;;;;;;;5.35;3.35;;;;;;;;;;5027236;28;20022;-62
2022/04/16 05:16:55;;;;;;;3.72;2.70;;;;;;;;;;5021374;28;20056;-62
2022/04/16 05:19:21;;;;;;;5.63;2.72;;;;;;;;;;5023566;28;20061;-61
2022/04/16 05:21:47;;;;;;;6.40;2.97;;;;;;;;;;5025166;28;20049;-62
2022/04/16 05:24:12;;;;;;;6.40;2.88;;;;;;;;;;5026174;28;20095;-61
2022/04/16 05:26:38;;;;;;;3.85;2.80;;;;;;;;;;5020120;28;20437;-62
2022/04/16 05:29:05;;;;;;;6.75;2.92;;;;;;;;;;5014190;28;20065;-62
2022/04/16 05:31:31;;;;;;;6.30;2.72;;;;;;;;;;5022136;28;20120;-62
2022/04/16 05:36:43;;;;;;;3.83;2.88;;;;;;;;;;5015425;28;20026;-62
2022/04/16 05:39:09;;;;;;;8.15;3.13;;;;;;;;;;5015129;28;20087;-62
2022/04/16 05:41:35;;;;;;;4.63;3.33;;;;;;;;;;5022923;28;20032;-62
2022/04/16 05:44:01;;;;;;;5.57;2.90;;;;;;;;;;5022834;28;20490;-62
2022/04/16 05:46:27;;;;;;;5.15;3.15;;;;;;;;;;5015288;28;20026;-62
2022/04/16 05:48:52;;;;;;;3.22;2.80;;;;;;;;;;5016145;28;20052;-62
2022/04/16 05:51:20;;;;;;;10.77;3.30;;;;;;;;;;5027056;28;20485;-61
2022/04/16 05:53:46;;;;;;;9.38;3.08;;;;;;;;;;5017485;28;20065;-62
2022/04/16 05:56:13;;;;;;;3.88;3.15;;;;;;;;;;5016392;28;20645;-61
2022/04/16 05:58:39;;;;;;;3.97;2.95;;;;;;;;;;5017281;28;20025;-61
2022/04/16 06:01:07;;;;;;;7.70;3.20;;;;;;;;;;5018460;28;20038;-62
2022/04/16 06:03:34;;;;;;;3.83;3.20;;;;;;;;;;5022089;28;20052;-62
2022/04/16 06:06:01;;;;;;;5.78;3.05;;;;;;;;;;5025241;28;20033;-62
2022/04/16 06:08:26;;;;;;;4.38;3.38;;;;;;;;;;5021051;28;20029;-62
2022/04/16 06:10:52;;;;;;;5.07;3.30;;;;;;;;;;5021997;28;20485;-62
2022/04/16 06:13:18;;;;;;;5.07;2.95;;;;;;;;;;5021523;28;20068;-61
2022/04/16 06:15:44;;;;;;;7.03;3.30;;;;;;;;;;5025620;28;20033;-62
2022/04/16 06:18:10;;;;;;;3.72;3.03;;;;;;;;;;5016050;28;20030;-62
2022/04/16 06:20:36;;;;;;;3.78;3.00;;;;;;;;;;5017468;28;20034;-61
2022/04/16 06:23:03;;;;;;;8.32;2.97;;;;;;;;;;5021422;28;20055;-62
2022/04/16 06:25:29;;;;;;;5.03;3.03;;;;;;;;;;5026605;28;20030;-62
2022/04/16 06:27:55;;;;;;;6.40;3.00;;;;;;;;;;5016145;28;20069;-62
2022/04/16 06:30:21;;;;;;;2.92;2.72;;;;;;;;;;5021250;28;20087;-62
2022/04/16 06:32:47;;;;;;;3.75;2.90;;;;;;;;;;5015928;28;20041;-62
2022/04/16 06:35:13;;;;;;;6.53;3.05;;;;;;;;;;5014588;28;20053;-62
2022/04/16 06:37:43;;;;;;;4.28;2.92;;;;;;;;;;5016168;28;20021;-62
2022/04/16 06:40:10;;;;;;;4.30;2.55;;;;;;;;;;5022072;28;20033;-62
2022/04/16 06:42:37;;;;;;;6.85;2.95;;;;;;;;;;5020128;28;20030;-61
2022/04/16 06:45:06;;;;;;;3.75;2.70;;;;;;;;;;5016327;28;20054;-62
2022/04/16 06:47:32;;;;;;;3.65;2.78;;;;;;;;;;5019540;28;20041;-62
2022/04/16 06:49:58;;;;;;;4.63;3.15;;;;;;;;;;5017836;28;20034;-61
2022/04/16 06:52:23;;;;;;;6.78;3.15;;;;;;;;;;5026207;28;20076;-62
2022/04/16 06:54:49;;;;;;;4.53;2.65;;;;;;;;;;5016664;28;20033;-62
2022/04/16 06:57:15;;;;;;;3.70;3.10;;;;;;;;;;5020502;28;20045;-62
2022/04/16 06:59:41;;;;;;;5.88;2.90;;;;;;;;;;5023894;28;20060;-62
2022/04/16 07:02:09;;;;;;;4.15;2.33;;;;;;;;;;5022885;28;20390;-62
2022/04/16 07:04:35;;;;;;;8.40;3.03;;;;;;;;;;5022633;28;20568;-62
2022/04/16 07:07:00;;;;;;;6.30;2.63;;;;;;;;;;5020484;28;20068;-62
2022/04/16 07:09:26;;;;;;;3.97;2.80;;;;;;;;;;5019176;28;20030;-62
2022/04/16 07:11:52;;;;;;;8.00;3.38;;;;;;;;;;5014611;28;20029;-62
2022/04/16 07:14:19;;;;;;;3.75;2.80;;;;;;;;;;5016079;28;20030;-62
2022/04/16 07:16:45;;;;;;;3.17;2.88;;;;;;;;;;5025764;28;20033;-62
2022/04/16 07:19:10;;;;;;;8.52;2.97;;;;;;;;;;5014044;28;20079;-62
2022/04/16 07:21:36;;;;;;;4.57;2.97;;;;;;;;;;5023822;28;20116;-62
2022/04/16 07:24:01;;;;;;;5.00;3.10;;;;;;;;;;5019221;28;20463;-61
2022/04/16 07:26:27;;;;;;;7.65;2.85;;;;;;;;;;5019396;28;20028;-63
2022/04/16 07:28:53;;;;;;;4.32;2.95;;;;;;;;;;5016753;28;20477;-62
2022/04/16 07:31:19;;;;;;;5.53;2.97;;;;;;;;;;5020775;28;20821;-61
2022/04/16 07:33:45;;;;;;;3.83;2.70;;;;;;;;;;5012035;28;20041;-62
2022/04/16 07:36:11;;;;;;;6.45;2.88;;;;;;;;;;5018641;28;20037;-63
2022/04/16 07:38:37;;;;;;;4.32;2.80;;;;;;;;;;5017158;28;20036;-62
2022/04/16 07:41:02;;;;;;;5.57;2.60;;;;;;;;;;5023369;28;20036;-62
2022/04/16 07:43:29;;;;;;;8.05;3.30;;;;;;;;;;5015474;28;20049;-62
2022/04/16 07:45:55;;;;;;;4.00;2.83;;;;;;;;;;5029283;28;20087;-62
2022/04/16 07:48:21;;;;;;;8.15;2.95;;;;;;;;;;5024398;28;20095;-62
2022/04/16 07:50:47;;;;;;;4.18;3.25;;;;;;;;;;5016697;28;20360;-62
2022/04/16 07:53:13;;;;;;;9.88;4.32;;;;;;;;;;5023497;28;20030;-62
2022/04/16 07:55:39;;;;;;;6.38;3.15;;;;;;;;;;5027305;28;20072;-63
2022/04/16 07:58:04;;;;;;;5.68;3.25;;;;;;;;;;5024963;28;20386;-63
2022/04/16 08:00:30;;;;;;;4.55;2.95;;;;;;;;;;5030737;28;20087;-62
2022/04/16 08:02:56;;;;;;;7.85;3.00;;;;;;;;;;5026230;28;21829;-63
2022/04/16 08:05:21;;;;;;;6.63;2.92;;;;;;;;;;5026606;28;20079;-62
2022/04/16 08:07:47;;;;;;;12.52;3.42;;;;;;;;;;5021139;28;20389;-62
2022/04/16 08:10:13;;;;;;;5.47;3.40;;;;;;;;;;5014662;28;20064;-62
2022/04/16 08:12:39;;;;;;;8.35;3.58;;;;;;;;;;5024564;28;20388;-62
2022/04/16 08:15:06;;;;;;;8.23;2.90;;;;;;;;;;5021156;28;20044;-62
2022/04/16 08:17:32;;;;;;;12.15;3.05;;;;;;;;;;5022811;28;20036;-62
2022/04/16 08:19:58;;;;;;;12.77;3.50;;;;;;;;;;5018097;28;20044;-62
2022/04/16 08:22:24;;;;;;;5.05;3.10;;;;;;;;;;5019618;28;20037;-63
2022/04/16 08:27:40;;;;;;;11.27;3.53;;;;;;;;;;4975232;28;20074;-63
2022/04/16 08:30:07;;;;;;;10.75;3.13;;;;;;;;;;4975733;28;20057;-62
2022/04/16 08:32:36;;;;;;;7.07;3.05;;;;;;;;;;4978927;28;20089;-63
2022/04/16 08:35:04;;;;;;;6.25;2.92;;;;;;;;;;4972464;28;20038;-63
2022/04/16 08:37:31;;;;;;;6.47;2.90;;;;;;;;;;4979614;28;20030;-62
2022/04/16 08:39:57;;;;;;;6.22;3.35;;;;;;;;;;4978638;28;20042;-62
2022/04/16 08:42:23;;;;;;;8.55;3.08;;;;;;;;;;4976995;28;20077;-63
2022/04/16 08:44:50;;;;;;;7.90;3.45;;;;;;;;;;4973541;28;20047;-63
2022/04/16 08:47:16;;;;;;;12.90;3.45;;;;;;;;;;4978896;28;20664;-63
2022/04/16 08:49:43;;;;;;;14.30;4.13;;;;;;;;;;4972462;28;20034;-60
2022/04/16 08:52:10;;;;;;;6.65;3.45;;;;;;;;;;4969419;28;20472;-60
2022/04/16 08:54:38;;;;;;;10.00;3.13;;;;;;;;;;4984073;28;20057;-59
2022/04/16 08:57:05;;;;;;;10.75;3.95;;;;;;;;;;4969372;28;20090;-60
2022/04/16 08:59:31;;;;;;;7.15;3.08;;;;;;;;;;4975385;28;20069;-60
2022/04/16 09:01:58;;;;;;;9.73;2.95;;;;;;;;;;4972396;28;20030;-60
2022/04/16 09:04:28;;;;;;;4.75;2.80;;;;;;;;;;4992179;28;20122;-63
2022/04/16 09:07:03;;;;;;;6.78;3.17;;;;;;;;;;5021138;28;20107;-63
2022/04/16 09:09:29;;;;;;;10.32;3.10;;;;;;;;;;5023431;28;20056;-63
2022/04/16 09:11:55;;;;;;;3.83;2.80;;;;;;;;;;5022673;28;20479;-63
2022/04/16 09:14:37;;;;;;;6.35;3.70;;;;;;;;;;5025962;28;20021;-63
2022/04/16 09:17:09;;;;;;;11.95;3.60;;;;;;;;;;5014023;28;20033;-63
2022/04/16 09:19:35;;;;;;;10.18;3.15;;;;;;;;;;5015699;28;20040;-63
2022/04/16 09:22:01;;;;;;;10.50;2.85;;;;;;;;;;5022963;28;20040;-61
2022/04/16 09:24:27;;;;;;;10.38;3.10;;;;;;;;;;5027136;28;20104;-61
2022/04/16 09:26:53;;;;;;;8.02;2.83;;;;;;;;;;5020613;28;20022;-61
2022/04/16 09:29:19;;;;;;;5.40;3.03;;;;;;;;;;5017151;28;20022;-60
2022/04/16 09:31:48;;;;;;;7.03;2.92;;;;;;;;;;5014860;28;20027;-61
2022/04/16 09:34:22;;;;;;;4.32;3.00;;;;;;;;;;5022601;28;20068;-61
2022/04/16 09:36:50;;;;;;;11.88;3.35;;;;;;;;;;5026041;28;20029;-60
2022/04/16 09:39:17;;;;;;;4.70;2.90;;;;;;;;;;5016324;28;20029;-59
2022/04/16 09:41:47;;;;;;;6.90;3.20;;;;;;;;;;5017195;28;20044;-61
2022/04/16 09:44:20;;;;;;;10.13;2.75;;;;;;;;;;5026241;28;20038;-61
2022/04/16 09:46:47;;;;;;;7.93;3.60;;;;;;;;;;5021748;28;20079;-61
2022/04/16 09:49:14;;;;;;;12.65;2.95;;;;;;;;;;5025826;28;20091;-61
2022/04/16 09:51:45;;;;;;;5.22;2.70;;;;;;;;;;5025160;28;20029;-61
2022/04/16 09:54:11;;;;;;;8.75;3.00;;;;;;;;;;5023704;28;20037;-61
2022/04/16 09:56:40;;;;;;;4.00;2.90;;;;;;;;;;5020500;28;20509;-60
2022/04/16 09:59:08;;;;;;;10.13;3.10;;;;;;;;;;5022351;28;20483;-61
2022/04/16 10:01:38;;;;;;;7.53;2.78;;;;;;;;;;5023209;28;20036;-61
2022/04/16 10:04:04;;;;;;;8.35;3.03;;;;;;;;;;5018036;28;20563;-61
2022/04/16 10:06:30;;;;;;;8.48;2.95;;;;;;;;;;5021685;28;20041;-61
2022/04/16 10:08:58;;;;;;;8.20;3.33;;;;;;;;;;5018435;28;20485;-61
2022/04/16 10:14:48;;;;;;;7.63;3.15;;;;;;;;;;4945157;28;20058;-61
2022/04/16 10:17:14;;;;;;;9.35;2.60;;;;;;;;;;4946851;28;20488;-61
2022/04/16 10:19:45;;;;;;;6.03;2.92;;;;;;;;;;4946859;28;20114;-61
2022/04/16 10:22:24;;;;;;;12.18;2.97;;;;;;;;;;4948511;28;20038;-61
2022/04/16 10:24:57;;;;;;;13.85;3.10;;;;;;;;;;4949441;28;20074;-61
2022/04/16 10:27:41;;;;;;;3.78;2.67;;;;;;;;;;4948398;28;20046;-61
2022/04/16 10:30:12;;;;;;;13.75;3.25;;;;;;;;;;4944903;28;20047;-60
2022/04/16 10:32:39;;;;;;;7.88;2.88;;;;;;;;;;4948648;28;20499;-61
2022/04/16 10:35:07;;;;;;;10.88;2.70;;;;;;;;;;4946809;28;20471;-61
2022/04/16 10:37:41;;;;;;;6.97;2.80;;;;;;;;;;4947090;28;20058;-62
2022/04/16 10:40:20;;;;;;;6.28;2.95;;;;;;;;;;4947602;28;20035;-62
2022/04/16 10:42:50;;;;;;;4.85;2.60;;;;;;;;;;4948934;28;20153;-62
2022/04/16 10:45:16;;;;;;;10.30;2.67;;;;;;;;;;4946079;28;20062;-62
2022/04/16 10:47:43;;;;;;;7.07;2.92;;;;;;;;;;4948976;28;20248;-62
2022/04/16 10:50:13;;;;;;;8.20;2.67;;;;;;;;;;4987837;28;20414;-62
2022/04/16 10:52:38;;;;;;;13.88;4.13;;;;;;;;;;5014789;28;20395;-61
2022/04/16 10:55:05;;;;;;;11.23;3.13;;;;;;;;;;5013478;28;20026;-62
2022/04/16 10:57:31;;;;;;;4.63;2.58;;;;;;;;;;5017322;28;20030;-62
2022/04/16 10:59:57;;;;;;;6.63;3.42;;;;;;;;;;5021223;28;20037;-59
2022/04/16 11:02:27;;;;;;;6.32;2.95;;;;;;;;;;5026073;28;20030;-62
2022/04/16 11:05:06;;;;;;;13.85;2.90;;;;;;;;;;5018755;28;20030;-62
2022/04/16 11:07:36;;;;;;;8.18;3.00;;;;;;;;;;5012569;28;20033;-62
2022/04/16 11:10:13;;;;;;;8.77;3.38;;;;;;;;;;5015628;28;20037;-62
2022/04/16 11:12:39;;;;;;;9.60;3.38;;;;;;;;;;5016404;28;20401;-62
2022/04/16 11:15:13;;;;;;;8.02;3.15;;;;;;;;;;5017874;28;20108;-62
2022/04/16 11:17:38;;;;;;;9.73;2.90;;;;;;;;;;5020710;28;20136;-62
2022/04/16 11:20:05;;;;;;;7.05;2.90;;;;;;;;;;5016930;28;20113;-62
2022/04/16 11:22:32;;;;;;;11.05;2.50;;;;;;;;;;5018115;28;20033;-62
2022/04/16 11:24:58;;;;;;;9.38;2.80;;;;;;;;;;5020317;28;20035;-61
2022/04/16 11:36:15;;;;;;;6.18;2.70;;;;;;;;;;5008740;28;20092;-61
2022/04/16 11:38:42;;;;;;;8.40;2.97;;;;;;;;;;5009035;28;20367;-62
2022/04/16 11:41:12;;;;;;;10.43;3.08;;;;;;;;;;5008915;28;20034;-62
2022/04/16 11:43:50;;;;;;;7.05;3.03;;;;;;;;;;5008345;28;20061;-62
2022/04/16 11:46:17;;;;;;;11.13;3.70;;;;;;;;;;5011419;28;20454;-61
2022/04/16 11:48:48;;;;;;;9.93;3.55;;;;;;;;;;5009360;28;20143;-62
2022/04/16 11:51:15;;;;;;;7.75;3.00;;;;;;;;;;5007997;28;20041;-62
2022/04/16 11:53:51;;;;;;;12.10;3.00;;;;;;;;;;5004772;28;20038;-63
2022/04/16 11:56:26;;;;;;;8.93;3.10;;;;;;;;;;5008141;28;20104;-62
2022/04/16 11:58:52;;;;;;;11.73;3.03;;;;;;;;;;5008174;28;20034;-62
2022/04/16 12:01:24;;;;;;;3.17;2.47;;;;;;;;;;5009662;28;20021;-62
2022/04/16 12:03:56;;;;;;;6.57;2.75;;;;;;;;;;5006005;28;20040;-62
2022/04/16 12:06:22;;;;;;;10.63;2.47;;;;;;;;;;5007458;28;20266;-62
2022/04/16 12:08:49;;;;;;;12.57;3.38;;;;;;;;;;5011939;28;20037;-62
2022/04/16 12:11:19;;;;;;;10.77;2.80;;;;;;;;;;5026071;28;20521;-62
2022/04/16 12:13:44;;;;;;;5.32;2.90;;;;;;;;;;5027653;28;20045;-61
2022/04/16 12:16:12;;;;;;;10.73;3.10;;;;;;;;;;5020105;28;20084;-61
2022/04/16 12:18:40;;;;;;;9.13;3.00;;;;;;;;;;5023635;28;20037;-62
2022/04/16 12:21:08;;;;;;;7.47;2.47;;;;;;;;;;5021888;28;20022;-61
2022/04/16 12:23:34;;;;;;;9.35;3.25;;;;;;;;;;5024216;28;20044;-61
2022/04/16 12:26:11;;;;;;;11.15;3.28;;;;;;;;;;5023425;28;20379;-62
2022/04/16 12:28:43;;;;;;;9.95;2.92;;;;;;;;;;5022347;28;20039;-59
2022/04/16 12:31:10;;;;;;;7.68;3.28;;;;;;;;;;5019207;28;20040;-61
2022/04/16 12:33:36;;;;;;;10.00;3.20;;;;;;;;;;5027825;28;20064;-62
2022/04/16 12:36:02;;;;;;;8.95;3.05;;;;;;;;;;5022772;28;20025;-61
2022/04/16 12:38:28;;;;;;;4.22;2.70;;;;;;;;;;5016124;28;20034;-61
2022/04/16 12:41:10;;;;;;;6.88;2.55;;;;;;;;;;5023281;28;20398;-61
2022/04/16 12:43:40;;;;;;;6.90;3.25;;;;;;;;;;5021081;28;20826;-61
2022/04/16 12:46:06;;;;;;;7.85;3.05;;;;;;;;;;5022992;28;20034;-62
2022/04/16 12:48:32;;;;;;;12.43;2.90;;;;;;;;;;5026140;28;20080;-61
2022/04/16 12:50:58;;;;;;;4.85;2.67;;;;;;;;;;5017331;28;20036;-61
2022/04/16 12:53:24;;;;;;;4.47;2.78;;;;;;;;;;5026888;28;20034;-61
2022/04/16 12:55:50;;;;;;;4.97;2.65;;;;;;;;;;5017421;28;20544;-62
2022/04/16 12:58:16;;;;;;;6.45;2.80;;;;;;;;;;5025971;28;20069;-61
2022/04/16 13:00:45;;;;;;;7.28;3.30;;;;;;;;;;5026824;28;20057;-61
2022/04/16 13:03:12;;;;;;;9.35;2.97;;;;;;;;;;5017449;28;20037;-61
2022/04/16 13:05:38;;;;;;;10.50;3.05;;;;;;;;;;5015793;28;20040;-61
2022/04/16 13:08:04;;;;;;;6.47;2.97;;;;;;;;;;5018767;28;20477;-62
2022/04/16 13:10:30;;;;;;;5.57;2.75;;;;;;;;;;5022757;28;20746;-61
2022/04/16 13:12:59;;;;;;;8.52;3.20;;;;;;;;;;5018432;28;20045;-61
2022/04/16 13:15:24;;;;;;;15.85;4.00;;;;;;;;;;5018073;28;20070;-62
2022/04/16 13:17:51;;;;;;;8.48;3.40;;;;;;;;;;5025265;28;20359;-61
2022/04/16 13:20:17;;;;;;;6.95;2.83;;;;;;;;;;5021866;28;20041;-62
2022/04/16 13:22:42;;;;;;;10.52;2.90;;;;;;;;;;5015299;28;20029;-61
2022/04/16 13:25:09;;;;;;;8.80;3.10;;;;;;;;;;5026736;28;20406;-61
2022/04/16 13:27:35;;;;;;;9.93;3.10;;;;;;;;;;5025147;28;20436;-62
2022/04/16 13:30:01;;;;;;;8.27;3.00;;;;;;;;;;5020536;28;20052;-61
2022/04/16 13:32:28;;;;;;;4.45;2.88;;;;;;;;;;5019545;28;20018;-61
2022/04/16 13:34:54;;;;;;;7.20;3.13;;;;;;;;;;5019314;28;20041;-61
2022/04/16 13:37:20;;;;;;;10.20;3.33;;;;;;;;;;5024926;28;20030;-61
2022/04/16 13:42:30;;;;;;;5.78;3.22;;;;;;;;;;5020934;28;20080;-61
2022/04/16 13:44:57;;;;;;;6.18;3.08;;;;;;;;;;5025253;28;20069;-61
2022/04/16 13:47:22;;;;;;;12.18;3.58;;;;;;;;;;5026291;28;20029;-64
2022/04/16 13:49:48;;;;;;;7.00;2.92;;;;;;;;;;5019389;28;20039;-63
2022/04/16 13:52:15;;;;;;;10.93;3.58;;;;;;;;;;5021298;28;20560;-62
2022/04/16 13:54:41;;;;;;;16.10;3.45;;;;;;;;;;5015246;28;20030;-62
2022/04/16 13:57:09;;;;;;;7.00;3.60;;;;;;;;;;5023845;28;20496;-62
2022/04/16 13:59:36;;;;;;;10.00;3.72;;;;;;;;;;5018121;28;20065;-63
2022/04/16 14:02:03;;;;;;;14.15;3.95;;;;;;;;;;5022473;28;20101;-64
2022/04/16 14:05:42;;;;;;;10.35;3.25;;;;;;;;;;5027444;28;20121;-62
2022/04/16 14:07:14;;;;;;;5.57;4.00;;;;;;;;;;5019495;28;20080;-62
2022/04/16 14:09:40;;;;;;;8.77;3.60;;;;;;;;;;5021168;28;20057;-61
2022/04/16 14:12:06;;;;;;;8.93;3.78;;;;;;;;;;5022577;28;20104;-61
2022/04/16 14:14:32;;;;;;;10.70;4.40;;;;;;;;;;5016493;28;20026;-61
2022/04/16 14:16:58;;;;;;;12.73;4.50;;;;;;;;;;5016950;28;20136;-61
2022/04/16 14:19:24;;;;;;;8.30;3.63;;;;;;;;;;5018648;28;20044;-61
2022/04/16 14:21:54;;;;;;;11.13;3.70;;;;;;;;;;5015353;28;20117;-61
2022/04/16 14:24:23;;;;;;;8.40;3.33;;;;;;;;;;5021433;28;20026;-61
2022/04/16 14:26:49;;;;;;;7.65;4.00;;;;;;;;;;5017016;28;20033;-61
2022/04/16 14:29:14;;;;;;;10.05;3.63;;;;;;;;;;5022949;28;20029;-61
2022/04/16 14:31:42;;;;;;;8.55;3.65;;;;;;;;;;5019869;28;20025;-62
2022/04/16 14:34:08;;;;;;;7.25;3.65;;;;;;;;;;5021326;28;20061;-61
2022/04/16 14:36:34;;;;;;;8.23;4.18;;;;;;;;;;5015673;28;20123;-61
2022/04/16 14:38:59;;;;;;;8.07;3.92;;;;;;;;;;5018388;28;20116;-61
2022/04/16 14:41:25;;;;;;;9.95;4.05;;;;;;;;;;5021781;28;20057;-61
2022/04/16 14:43:56;;;;;;;12.02;3.75;;;;;;;;;;5021070;28;20037;-61
2022/04/16 14:46:22;;;;;;;8.80;3.70;;;;;;;;;;5012440;28;20080;-60
2022/04/16 14:48:53;;;;;;;6.93;3.53;;;;;;;;;;5027721;28;20037;-61
2022/04/16 14:51:19;;;;;;;8.30;3.42;;;;;;;;;;5025464;28;20060;-60
2022/04/16 14:53:45;;;;;;;9.60;3.28;;;;;;;;;;5023292;28;20041;-61
2022/04/16 14:56:11;;;;;;;8.43;3.58;;;;;;;;;;5024689;28;20048;-61
2022/04/16 14:58:38;;;;;;;14.38;3.85;;;;;;;;;;5028127;28;20033;-59
2022/04/16 15:01:04;;;;;;;11.25;4.68;;;;;;;;;;5029413;28;20555;-61
2022/04/16 15:03:30;;;;;;;9.02;4.03;;;;;;;;;;5029016;28;20041;-61
2022/04/16 15:05:58;;;;;;;11.07;4.38;;;;;;;;;;5027238;28;20389;-61
2022/04/16 15:08:23;;;;;;;6.95;3.60;;;;;;;;;;5027701;28;20025;-61
2022/04/16 15:10:49;;;;;;;9.57;3.90;;;;;;;;;;5021210;28;20029;-61
2022/04/16 15:13:15;;;;;;;15.50;4.70;;;;;;;;;;5026074;28;20405;-61